<?xml version="1.0" encoding="UTF-8"?>
<gpx xmlns:xsi="http://www.w3.org/2001/XMLSchema-instance" xmlns="http://www.topografix.com/GPX/1/1" xsi:schemaLocation="http://www.topografix.com/GPX/1/1 http://www.topografix.com/GPX/1/1/gpx.xsd http://www.garmin.com/xmlschemas/GpxExtensions/v3 http://www.garmin.com/xmlschemas/GpxExtensionsv3.xsd http://www.garmin.com/xmlschemas/TrackPointExtension/v1 http://www.garmin.com/xmlschemas/TrackPointExtensionv1.xsd http://www.topografix.com/GPX/gpx_style/0/2 http://www.topografix.com/GPX/gpx_style/0/2/gpx_style.xsd" xmlns:gpxtpx="http://www.garmin.com/xmlschemas/TrackPointExtension/v1" xmlns:gpxx="http://www.garmin.com/xmlschemas/GpxExtensions/v3" xmlns:gpx_style="http://www.topografix.com/GPX/gpx_style/0/2" version="1.1" creator="http://thydzik.com">
<metadata>
    <name>4 ibilbidea_DOLOMETAKO BASOA_20230222</name>
    <author>
        <name>gpx.studio</name>
        <link href="https://gpx.studio"></link>
    </author>
</metadata>
<trk>
    <name>4 ibilbidea_DOLOMETAKO BASOA_20230222</name>
    <type>Cycling</type>
    <trkseg>
    <trkpt lat="43.16862578040878" lon="-2.64163882680571">
        <ele>110.8</ele>
        <time>2023-02-22T10:25:52.000Z</time>
    </trkpt>
    <trkpt lat="43.16852792660347" lon="-2.641647244304538">
        <ele>110.7</ele>
        <time>2023-02-22T10:26:03.189Z</time>
    </trkpt>
    <trkpt lat="43.16834445322418" lon="-2.641676653272759">
        <ele>110.4</ele>
        <time>2023-02-22T10:26:24.520Z</time>
    </trkpt>
    <trkpt lat="43.16821602132583" lon="-2.641693465727577">
        <ele>110.3</ele>
        <time>2023-02-22T10:26:40.126Z</time>
    </trkpt>
    <trkpt lat="43.1681196977845" lon="-2.641708171290105">
        <ele>110.3</ele>
        <time>2023-02-22T10:26:51.868Z</time>
    </trkpt>
    <trkpt lat="43.16806891765452" lon="-2.641722862198605">
        <ele>110.6</ele>
        <time>2023-02-22T10:26:58.342Z</time>
    </trkpt>
    <trkpt lat="43.16793742745222" lon="-2.64173757907812">
        <ele>111.7</ele>
        <time>2023-02-22T10:27:14.631Z</time>
    </trkpt>
    <trkpt lat="43.16780746841474" lon="-2.641764873506187">
        <ele>112.6</ele>
        <time>2023-02-22T10:27:30.589Z</time>
    </trkpt>
    <trkpt lat="43.16771267458412" lon="-2.64178377100826">
        <ele>113.2</ele>
        <time>2023-02-22T10:27:42.455Z</time>
    </trkpt>
    <trkpt lat="43.16756742416207" lon="-2.641802684401052">
        <ele>113.7</ele>
        <time>2023-02-22T10:28:00.280Z</time>
    </trkpt>
    <trkpt lat="43.16747569426464" lon="-2.641857218700769">
        <ele>114.1</ele>
        <time>2023-02-22T10:28:12.309Z</time>
    </trkpt>
    <trkpt lat="43.1674481939657" lon="-2.641983008388884">
        <ele>114.5</ele>
        <time>2023-02-22T10:28:24.182Z</time>
    </trkpt>
    <trkpt lat="43.16745586372794" lon="-2.642129750360708">
        <ele>115.0</ele>
        <time>2023-02-22T10:28:37.359Z</time>
    </trkpt>
    <trkpt lat="43.16746200528691" lon="-2.642282781691085">
        <ele>115.5</ele>
        <time>2023-02-22T10:28:51.141Z</time>
    </trkpt>
    <trkpt lat="43.16748038538849" lon="-2.642477736040739">
        <ele>116.0</ele>
        <time>2023-02-22T10:29:08.848Z</time>
    </trkpt>
    <trkpt lat="43.16750028726626" lon="-2.642630763046686">
        <ele>116.5</ele>
        <time>2023-02-22T10:29:22.783Z</time>
    </trkpt>
    <trkpt lat="43.16752171853701" lon="-2.642787982333296">
        <ele>116.9</ele>
        <time>2023-02-22T10:29:37.010Z</time>
    </trkpt>
    <trkpt lat="43.16756914798278" lon="-2.642980831812252">
        <ele>117.4</ele>
        <time>2023-02-22T10:29:54.954Z</time>
    </trkpt>
    <trkpt lat="43.1676165677727" lon="-2.643114983915228">
        <ele>117.5</ele>
        <time>2023-02-22T10:30:08.143Z</time>
    </trkpt>
    <trkpt lat="43.16766551736825" lon="-2.643255424877867">
        <ele>117.4</ele>
        <time>2023-02-22T10:30:21.723Z</time>
    </trkpt>
    <trkpt lat="43.16771349091611" lon="-2.643353383907525">
        <ele>117.4</ele>
        <time>2023-02-22T10:30:31.912Z</time>
    </trkpt>
    <trkpt lat="43.16771719642905" lon="-2.643422614888783">
        <ele>117.4</ele>
        <time>2023-02-22T10:30:37.845Z</time>
    </trkpt>
    <trkpt lat="43.16768026871211" lon="-2.643547580921795">
        <ele>116.8</ele>
        <time>2023-02-22T10:30:49.297Z</time>
    </trkpt>
    <trkpt lat="43.16766057871803" lon="-2.643645524276821">
        <ele>116.1</ele>
        <time>2023-02-22T10:30:57.894Z</time>
    </trkpt>
    <trkpt lat="43.1676544379862" lon="-2.643756972215119">
        <ele>115.3</ele>
        <time>2023-02-22T10:31:07.347Z</time>
    </trkpt>
    <trkpt lat="43.16764091441096" lon="-2.643912325030841">
        <ele>114.9</ele>
        <time>2023-02-22T10:31:20.553Z</time>
    </trkpt>
    <trkpt lat="43.16762984995722" lon="-2.644042348309545">
        <ele>114.4</ele>
        <time>2023-02-22T10:31:31.499Z</time>
    </trkpt>
    <trkpt lat="43.16763109851145" lon="-2.644155482235892">
        <ele>114.5</ele>
        <time>2023-02-22T10:31:41.169Z</time>
    </trkpt>
    <trkpt lat="43.16761510349598" lon="-2.644258489532803">
        <ele>114.7</ele>
        <time>2023-02-22T10:31:50.043Z</time>
    </trkpt>
    <trkpt lat="43.16760527071641" lon="-2.644391889281101">
        <ele>115.1</ele>
        <time>2023-02-22T10:32:02.257Z</time>
    </trkpt>
    <trkpt lat="43.16757696771374" lon="-2.644548934044325">
        <ele>116.2</ele>
        <time>2023-02-22T10:32:17.815Z</time>
    </trkpt>
    <trkpt lat="43.16755905289746" lon="-2.64467919045855">
        <ele>117.2</ele>
        <time>2023-02-22T10:32:30.258Z</time>
    </trkpt>
    <trkpt lat="43.16753690101853" lon="-2.644792330591183">
        <ele>118.0</ele>
        <time>2023-02-22T10:32:41.038Z</time>
    </trkpt>
    <trkpt lat="43.16751844060012" lon="-2.644883518230912">
        <ele>118.6</ele>
        <time>2023-02-22T10:32:49.685Z</time>
    </trkpt>
    <trkpt lat="43.16748767116327" lon="-2.645021988955238">
        <ele>119.5</ele>
        <time>2023-02-22T10:33:04.157Z</time>
    </trkpt>
    <trkpt lat="43.16743105426926" lon="-2.645271911748329">
        <ele>122.1</ele>
        <time>2023-02-22T10:33:33.443Z</time>
    </trkpt>
    <trkpt lat="43.16738674873318" lon="-2.645494814133369">
        <ele>124.5</ele>
        <time>2023-02-22T10:34:02.127Z</time>
    </trkpt>
    <trkpt lat="43.16735965794088" lon="-2.645521838248365">
        <ele>124.8</ele>
        <time>2023-02-22T10:34:07.404Z</time>
    </trkpt>
    <trkpt lat="43.16718" lon="-2.64552">
        <ele>124.9</ele>
        <time>2023-02-22T10:34:39.398Z</time>
    </trkpt>
    <trkpt lat="43.16706" lon="-2.64552">
        <ele>125.9</ele>
        <time>2023-02-22T10:34:58.982Z</time>
    </trkpt>
    <trkpt lat="43.16674" lon="-2.64553">
        <ele>132.2</ele>
        <time>2023-02-22T10:35:57.395Z</time>
    </trkpt>
    <trkpt lat="43.16664" lon="-2.64554">
        <ele>135.4</ele>
        <time>2023-02-22T10:36:17.059Z</time>
    </trkpt>
    <trkpt lat="43.1666" lon="-2.64554">
        <ele>136.9</ele>
        <time>2023-02-22T10:36:24.090Z</time>
    </trkpt>
    <trkpt lat="43.16649" lon="-2.64555">
        <ele>141.1</ele>
        <time>2023-02-22T10:36:46.269Z</time>
    </trkpt>
    <trkpt lat="43.16633" lon="-2.64559">
        <ele>145.0</ele>
        <time>2023-02-22T10:37:23.569Z</time>
    </trkpt>
    <trkpt lat="43.16629" lon="-2.64561">
        <ele>145.7</ele>
        <time>2023-02-22T10:37:31.982Z</time>
    </trkpt>
    <trkpt lat="43.1659" lon="-2.64573">
        <ele>150.6</ele>
        <time>2023-02-22T10:39:01.638Z</time>
    </trkpt>
    <trkpt lat="43.16565" lon="-2.6458">
        <ele>153.3</ele>
        <time>2023-02-22T10:40:06.174Z</time>
    </trkpt>
    <trkpt lat="43.16546" lon="-2.64587">
        <ele>155.1</ele>
        <time>2023-02-22T10:40:58.243Z</time>
    </trkpt>
    <trkpt lat="43.16539" lon="-2.6459">
        <ele>155.8</ele>
        <time>2023-02-22T10:41:20.154Z</time>
    </trkpt>
    <trkpt lat="43.16537" lon="-2.64591">
        <ele>155.9</ele>
        <time>2023-02-22T10:41:26.794Z</time>
    </trkpt>
    <trkpt lat="43.16522" lon="-2.64598">
        <ele>157.3</ele>
        <time>2023-02-22T10:42:08.292Z</time>
    </trkpt>
    <trkpt lat="43.16521" lon="-2.64599">
        <ele>157.3</ele>
        <time>2023-02-22T10:42:10.982Z</time>
    </trkpt>
    <trkpt lat="43.16513" lon="-2.64604">
        <ele>157.4</ele>
        <time>2023-02-22T10:42:27.859Z</time>
    </trkpt>
    <trkpt lat="43.16506" lon="-2.64609">
        <ele>158.3</ele>
        <time>2023-02-22T10:42:41.623Z</time>
    </trkpt>
    <trkpt lat="43.16497" lon="-2.64616">
        <ele>159.0</ele>
        <time>2023-02-22T10:42:59.271Z</time>
    </trkpt>
    <trkpt lat="43.16491" lon="-2.64621">
        <ele>159.5</ele>
        <time>2023-02-22T10:43:10.507Z</time>
    </trkpt>
    <trkpt lat="43.1649" lon="-2.64621">
        <ele>159.7</ele>
        <time>2023-02-22T10:43:12.007Z</time>
    </trkpt>
    <trkpt lat="43.16482" lon="-2.64624">
        <ele>161.0</ele>
        <time>2023-02-22T10:43:23.893Z</time>
    </trkpt>
    <trkpt lat="43.16473" lon="-2.64627">
        <ele>162.6</ele>
        <time>2023-02-22T10:43:37.019Z</time>
    </trkpt>
    <trkpt lat="43.16465" lon="-2.64629">
        <ele>164.2</ele>
        <time>2023-02-22T10:43:48.079Z</time>
    </trkpt>
    <trkpt lat="43.16463" lon="-2.6463">
        <ele>164.5</ele>
        <time>2023-02-22T10:43:50.878Z</time>
    </trkpt>
    <trkpt lat="43.16461" lon="-2.64631">
        <ele>164.9</ele>
        <time>2023-02-22T10:43:53.951Z</time>
    </trkpt>
    <trkpt lat="43.16459" lon="-2.64633">
        <ele>165.1</ele>
        <time>2023-02-22T10:43:57.369Z</time>
    </trkpt>
    <trkpt lat="43.16458" lon="-2.64635">
        <ele>165.2</ele>
        <time>2023-02-22T10:43:59.723Z</time>
    </trkpt>
    <trkpt lat="43.16457" lon="-2.64637">
        <ele>165.3</ele>
        <time>2023-02-22T10:44:02.008Z</time>
    </trkpt>
    <trkpt lat="43.16456" lon="-2.64642">
        <ele>165.4</ele>
        <time>2023-02-22T10:44:07.147Z</time>
    </trkpt>
    <trkpt lat="43.16455" lon="-2.6465">
        <ele>165.3</ele>
        <time>2023-02-22T10:44:15.266Z</time>
    </trkpt>
    <trkpt lat="43.16456" lon="-2.64661">
        <ele>164.6</ele>
        <time>2023-02-22T10:44:25.996Z</time>
    </trkpt>
    <trkpt lat="43.16456" lon="-2.64675">
        <ele>164.1</ele>
        <time>2023-02-22T10:44:39.164Z</time>
    </trkpt>
    <trkpt lat="43.16455" lon="-2.64686">
        <ele>164.0</ele>
        <time>2023-02-22T10:44:49.856Z</time>
    </trkpt>
    <trkpt lat="43.16454" lon="-2.64703">
        <ele>163.7</ele>
        <time>2023-02-22T10:45:05.974Z</time>
    </trkpt>
    <trkpt lat="43.16454" lon="-2.64718">
        <ele>163.3</ele>
        <time>2023-02-22T10:45:19.909Z</time>
    </trkpt>
    <trkpt lat="43.16453" lon="-2.64726">
        <ele>163.4</ele>
        <time>2023-02-22T10:45:27.401Z</time>
    </trkpt>
    <trkpt lat="43.16454" lon="-2.64732">
        <ele>163.1</ele>
        <time>2023-02-22T10:45:32.964Z</time>
    </trkpt>
    <trkpt lat="43.16454" lon="-2.64735">
        <ele>163.2</ele>
        <time>2023-02-22T10:45:35.997Z</time>
    </trkpt>
    <trkpt lat="43.16455" lon="-2.6474">
        <ele>163.1</ele>
        <time>2023-02-22T10:45:41.048Z</time>
    </trkpt>
    <trkpt lat="43.16457" lon="-2.64748">
        <ele>163.0</ele>
        <time>2023-02-22T10:45:49.101Z</time>
    </trkpt>
    <trkpt lat="43.16462" lon="-2.64763">
        <ele>163.1</ele>
        <time>2023-02-22T10:46:04.189Z</time>
    </trkpt>
    <trkpt lat="43.16463" lon="-2.64772">
        <ele>163.3</ele>
        <time>2023-02-22T10:46:12.365Z</time>
    </trkpt>
    <trkpt lat="43.16463" lon="-2.64782">
        <ele>163.6</ele>
        <time>2023-02-22T10:46:21.257Z</time>
    </trkpt>
    <trkpt lat="43.16463" lon="-2.64783">
        <ele>163.7</ele>
        <time>2023-02-22T10:46:22.132Z</time>
    </trkpt>
    <trkpt lat="43.16462" lon="-2.64792">
        <ele>164.0</ele>
        <time>2023-02-22T10:46:30.176Z</time>
    </trkpt>
    <trkpt lat="43.1646" lon="-2.64806">
        <ele>164.2</ele>
        <time>2023-02-22T10:46:42.607Z</time>
    </trkpt>
    <trkpt lat="43.16456" lon="-2.64825">
        <ele>164.0</ele>
        <time>2023-02-22T10:46:59.927Z</time>
    </trkpt>
    <trkpt lat="43.16455" lon="-2.6483">
        <ele>164.1</ele>
        <time>2023-02-22T10:47:04.947Z</time>
    </trkpt>
    <trkpt lat="43.1645" lon="-2.64853">
        <ele>164.0</ele>
        <time>2023-02-22T10:47:28.011Z</time>
    </trkpt>
    <trkpt lat="43.16449" lon="-2.64856">
        <ele>164.2</ele>
        <time>2023-02-22T10:47:31.270Z</time>
    </trkpt>
    <trkpt lat="43.16442" lon="-2.64879">
        <ele>165.7</ele>
        <time>2023-02-22T10:47:56.001Z</time>
    </trkpt>
    <trkpt lat="43.16439" lon="-2.64887">
        <ele>166.4</ele>
        <time>2023-02-22T10:48:04.837Z</time>
    </trkpt>
    <trkpt lat="43.16433" lon="-2.64897">
        <ele>168.0</ele>
        <time>2023-02-22T10:48:17.318Z</time>
    </trkpt>
    <trkpt lat="43.16428" lon="-2.64904">
        <ele>169.2</ele>
        <time>2023-02-22T10:48:27.707Z</time>
    </trkpt>
    <trkpt lat="43.16411" lon="-2.64923">
        <ele>172.4</ele>
        <time>2023-02-22T10:48:59.144Z</time>
    </trkpt>
    <trkpt lat="43.16406" lon="-2.64929">
        <ele>172.8</ele>
        <time>2023-02-22T10:49:09.044Z</time>
    </trkpt>
    <trkpt lat="43.16393" lon="-2.64946">
        <ele>172.4</ele>
        <time>2023-02-22T10:49:35.785Z</time>
    </trkpt>
    <trkpt lat="43.1638" lon="-2.64963">
        <ele>170.7</ele>
        <time>2023-02-22T10:50:02.296Z</time>
    </trkpt>
    <trkpt lat="43.16364" lon="-2.64983">
        <ele>170.0</ele>
        <time>2023-02-22T10:50:33.154Z</time>
    </trkpt>
    <trkpt lat="43.16361" lon="-2.64985">
        <ele>170.0</ele>
        <time>2023-02-22T10:50:37.711Z</time>
    </trkpt>
    <trkpt lat="43.16358" lon="-2.64991">
        <ele>169.9</ele>
        <time>2023-02-22T10:50:44.765Z</time>
    </trkpt>
    <trkpt lat="43.16354" lon="-2.64997">
        <ele>170.4</ele>
        <time>2023-02-22T10:50:51.888Z</time>
    </trkpt>
    <trkpt lat="43.16344" lon="-2.65017">
        <ele>171.1</ele>
        <time>2023-02-22T10:51:10.816Z</time>
    </trkpt>
    <trkpt lat="43.16341" lon="-2.65022">
        <ele>171.1</ele>
        <time>2023-02-22T10:51:14.767Z</time>
    </trkpt>
    <trkpt lat="43.16339" lon="-2.65026">
        <ele>171.1</ele>
        <time>2023-02-22T10:51:17.839Z</time>
    </trkpt>
    <trkpt lat="43.16336" lon="-2.65029">
        <ele>171.1</ele>
        <time>2023-02-22T10:51:21.171Z</time>
    </trkpt>
    <trkpt lat="43.16333" lon="-2.65032">
        <ele>171.2</ele>
        <time>2023-02-22T10:51:23.914Z</time>
    </trkpt>
    <trkpt lat="43.16331" lon="-2.65034">
        <ele>171.2</ele>
        <time>2023-02-22T10:51:25.839Z</time>
    </trkpt>
    <trkpt lat="43.16329" lon="-2.65036">
        <ele>171.1</ele>
        <time>2023-02-22T10:51:27.694Z</time>
    </trkpt>
    <trkpt lat="43.16326" lon="-2.65038">
        <ele>171.1</ele>
        <time>2023-02-22T10:51:30.037Z</time>
    </trkpt>
    <trkpt lat="43.16315" lon="-2.65042">
        <ele>170.6</ele>
        <time>2023-02-22T10:51:38.050Z</time>
    </trkpt>
    <trkpt lat="43.16314" lon="-2.65042">
        <ele>170.6</ele>
        <time>2023-02-22T10:51:38.794Z</time>
    </trkpt>
    <trkpt lat="43.16296" lon="-2.65045">
        <ele>168.7</ele>
        <time>2023-02-22T10:51:52.712Z</time>
    </trkpt>
    <trkpt lat="43.16273" lon="-2.65049">
        <ele>166.8</ele>
        <time>2023-02-22T10:52:10.513Z</time>
    </trkpt>
    <trkpt lat="43.16269" lon="-2.6505">
        <ele>166.4</ele>
        <time>2023-02-22T10:52:13.653Z</time>
    </trkpt>
    <trkpt lat="43.16267" lon="-2.65051">
        <ele>166.2</ele>
        <time>2023-02-22T10:52:15.375Z</time>
    </trkpt>
    <trkpt lat="43.16264" lon="-2.65053">
        <ele>165.8</ele>
        <time>2023-02-22T10:52:18.187Z</time>
    </trkpt>
    <trkpt lat="43.16262" lon="-2.65055">
        <ele>165.6</ele>
        <time>2023-02-22T10:52:20.044Z</time>
    </trkpt>
    <trkpt lat="43.16259" lon="-2.65059">
        <ele>165.1</ele>
        <time>2023-02-22T10:52:23.067Z</time>
    </trkpt>
    <trkpt lat="43.16256" lon="-2.65062">
        <ele>164.9</ele>
        <time>2023-02-22T10:52:25.898Z</time>
    </trkpt>
    <trkpt lat="43.16251" lon="-2.65072">
        <ele>164.0</ele>
        <time>2023-02-22T10:52:32.299Z</time>
    </trkpt>
    <trkpt lat="43.1625" lon="-2.65074">
        <ele>163.7</ele>
        <time>2023-02-22T10:52:33.649Z</time>
    </trkpt>
    <trkpt lat="43.16246" lon="-2.65085">
        <ele>162.3</ele>
        <time>2023-02-22T10:52:39.997Z</time>
    </trkpt>
    <trkpt lat="43.16242" lon="-2.65096">
        <ele>161.6</ele>
        <time>2023-02-22T10:52:46.560Z</time>
    </trkpt>
    <trkpt lat="43.16241" lon="-2.65099">
        <ele>161.6</ele>
        <time>2023-02-22T10:52:48.415Z</time>
    </trkpt>
    <trkpt lat="43.16233" lon="-2.65112">
        <ele>161.7</ele>
        <time>2023-02-22T10:52:58.064Z</time>
    </trkpt>
    <trkpt lat="43.16224" lon="-2.65123">
        <ele>161.6</ele>
        <time>2023-02-22T10:53:07.860Z</time>
    </trkpt>
    <trkpt lat="43.16216" lon="-2.65129">
        <ele>162.2</ele>
        <time>2023-02-22T10:53:15.623Z</time>
    </trkpt>
    <trkpt lat="43.16212" lon="-2.65132">
        <ele>162.7</ele>
        <time>2023-02-22T10:53:19.718Z</time>
    </trkpt>
    <trkpt lat="43.162" lon="-2.6514">
        <ele>163.7</ele>
        <time>2023-02-22T10:53:32.055Z</time>
    </trkpt>
    <trkpt lat="43.16199" lon="-2.6514">
        <ele>163.6</ele>
        <time>2023-02-22T10:53:33.002Z</time>
    </trkpt>
    <trkpt lat="43.16197" lon="-2.65142">
        <ele>163.8</ele>
        <time>2023-02-22T10:53:35.346Z</time>
    </trkpt>
    <trkpt lat="43.16183" lon="-2.65147">
        <ele>165.1</ele>
        <time>2023-02-22T10:53:49.521Z</time>
    </trkpt>
    <trkpt lat="43.16164" lon="-2.65154">
        <ele>166.7</ele>
        <time>2023-02-22T10:54:09.388Z</time>
    </trkpt>
    <trkpt lat="43.16153" lon="-2.6516">
        <ele>167.8</ele>
        <time>2023-02-22T10:54:21.824Z</time>
    </trkpt>
    <trkpt lat="43.16149" lon="-2.65163">
        <ele>168.1</ele>
        <time>2023-02-22T10:54:27.178Z</time>
    </trkpt>
    <trkpt lat="43.1614" lon="-2.65169">
        <ele>168.4</ele>
        <time>2023-02-22T10:54:39.055Z</time>
    </trkpt>
    <trkpt lat="43.16132" lon="-2.65176">
        <ele>168.3</ele>
        <time>2023-02-22T10:54:51.016Z</time>
    </trkpt>
    <trkpt lat="43.1612" lon="-2.65188">
        <ele>168.2</ele>
        <time>2023-02-22T10:55:11.315Z</time>
    </trkpt>
    <trkpt lat="43.16118" lon="-2.65189">
        <ele>168.3</ele>
        <time>2023-02-22T10:55:14.596Z</time>
    </trkpt>
    <trkpt lat="43.16113" lon="-2.65195">
        <ele>168.7</ele>
        <time>2023-02-22T10:55:26.012Z</time>
    </trkpt>
    <trkpt lat="43.16107" lon="-2.65206">
        <ele>169.1</ele>
        <time>2023-02-22T10:55:41.910Z</time>
    </trkpt>
    <trkpt lat="43.16095" lon="-2.65226">
        <ele>169.8</ele>
        <time>2023-02-22T10:56:12.501Z</time>
    </trkpt>
    <trkpt lat="43.16084" lon="-2.65246">
        <ele>171.2</ele>
        <time>2023-02-22T10:56:41.595Z</time>
    </trkpt>
    <trkpt lat="43.16073" lon="-2.65265">
        <ele>173.1</ele>
        <time>2023-02-22T10:57:09.892Z</time>
    </trkpt>
    <trkpt lat="43.16069" lon="-2.65272">
        <ele>174.0</ele>
        <time>2023-02-22T10:57:20.147Z</time>
    </trkpt>
    <trkpt lat="43.160692" lon="-2.65272">
        <ele>174.0</ele>
        <time>2023-02-22T10:57:20.443Z</time>
    </trkpt>
    <trkpt lat="43.16064" lon="-2.65282">
        <ele>175.2</ele>
        <time>2023-02-22T10:57:33.104Z</time>
    </trkpt>
    <trkpt lat="43.16062" lon="-2.65285">
        <ele>175.5</ele>
        <time>2023-02-22T10:57:37.707Z</time>
    </trkpt>
    <trkpt lat="43.16051" lon="-2.65304">
        <ele>175.8</ele>
        <time>2023-02-22T10:58:07.698Z</time>
    </trkpt>
    <trkpt lat="43.16046" lon="-2.65312">
        <ele>175.9</ele>
        <time>2023-02-22T10:58:21.505Z</time>
    </trkpt>
    <trkpt lat="43.16042" lon="-2.65318">
        <ele>176.1</ele>
        <time>2023-02-22T10:58:31.249Z</time>
    </trkpt>
    <trkpt lat="43.16034" lon="-2.65329">
        <ele>177.6</ele>
        <time>2023-02-22T10:58:51.283Z</time>
    </trkpt>
    <trkpt lat="43.16021" lon="-2.65346">
        <ele>180.7</ele>
        <time>2023-02-22T10:59:21.171Z</time>
    </trkpt>
    <trkpt lat="43.15999" lon="-2.65373">
        <ele>185.1</ele>
        <time>2023-02-22T11:00:16.431Z</time>
    </trkpt>
    <trkpt lat="43.15986" lon="-2.6539">
        <ele>185.8</ele>
        <time>2023-02-22T11:00:48.487Z</time>
    </trkpt>
    <trkpt lat="43.15973" lon="-2.65406">
        <ele>186.3</ele>
        <time>2023-02-22T11:01:23.751Z</time>
    </trkpt>
    <trkpt lat="43.15953" lon="-2.65431">
        <ele>188.4</ele>
        <time>2023-02-22T11:02:23.124Z</time>
    </trkpt>
    <trkpt lat="43.15947" lon="-2.6544">
        <ele>190.2</ele>
        <time>2023-02-22T11:02:43.806Z</time>
    </trkpt>
    <trkpt lat="43.15933" lon="-2.65456">
        <ele>192.3</ele>
        <time>2023-02-22T11:03:20.192Z</time>
    </trkpt>
    <trkpt lat="43.15906" lon="-2.65488">
        <ele>198.4</ele>
        <time>2023-02-22T11:04:36.162Z</time>
    </trkpt>
    <trkpt lat="43.15889" lon="-2.65504">
        <ele>199.7</ele>
        <time>2023-02-22T11:05:23.332Z</time>
    </trkpt>
    <trkpt lat="43.1588" lon="-2.65513">
        <ele>200.0</ele>
        <time>2023-02-22T11:05:51.358Z</time>
    </trkpt>
    <trkpt lat="43.15849" lon="-2.65542">
        <ele>200.7</ele>
        <time>2023-02-22T11:07:27.502Z</time>
    </trkpt>
    <trkpt lat="43.15845" lon="-2.65546">
        <ele>200.9</ele>
        <time>2023-02-22T11:07:39.025Z</time>
    </trkpt>
    <trkpt lat="43.15842" lon="-2.65548">
        <ele>201.2</ele>
        <time>2023-02-22T11:07:45.688Z</time>
    </trkpt>
    <trkpt lat="43.15831" lon="-2.65561">
        <ele>204.2</ele>
        <time>2023-02-22T11:08:13.463Z</time>
    </trkpt>
    <trkpt lat="43.158185" lon="-2.655767">
        <ele>206.3</ele>
        <time>2023-02-22T11:08:44.618Z</time>
    </trkpt>
    <trkpt lat="43.158107" lon="-2.655891">
        <ele>208.1</ele>
        <time>2023-02-22T11:09:05.304Z</time>
    </trkpt>
    <trkpt lat="43.158061" lon="-2.655962">
        <ele>208.9</ele>
        <time>2023-02-22T11:09:18.644Z</time>
    </trkpt>
    <trkpt lat="43.157912" lon="-2.655997">
        <ele>207.4</ele>
        <time>2023-02-22T11:09:44.854Z</time>
    </trkpt>
    <trkpt lat="43.157828" lon="-2.655988">
        <ele>207.2</ele>
        <time>2023-02-22T11:10:00.159Z</time>
    </trkpt>
    <trkpt lat="43.157724" lon="-2.655996">
        <ele>207.1</ele>
        <time>2023-02-22T11:10:19.377Z</time>
    </trkpt>
    <trkpt lat="43.157665" lon="-2.656023">
        <ele>207.2</ele>
        <time>2023-02-22T11:10:32.352Z</time>
    </trkpt>
    <trkpt lat="43.157594" lon="-2.656102">
        <ele>208.3</ele>
        <time>2023-02-22T11:10:52.910Z</time>
    </trkpt>
    <trkpt lat="43.157503" lon="-2.656173">
        <ele>209.9</ele>
        <time>2023-02-22T11:11:19.646Z</time>
    </trkpt>
    <trkpt lat="43.157373" lon="-2.656235">
        <ele>212.3</ele>
        <time>2023-02-22T11:11:49.038Z</time>
    </trkpt>
    <trkpt lat="43.157198" lon="-2.65618">
        <ele>215.7</ele>
        <time>2023-02-22T11:12:25.182Z</time>
    </trkpt>
    <trkpt lat="43.157003" lon="-2.656277">
        <ele>218.8</ele>
        <time>2023-02-22T11:13:04.789Z</time>
    </trkpt>
    <trkpt lat="43.156867" lon="-2.656303">
        <ele>220.3</ele>
        <time>2023-02-22T11:13:29.859Z</time>
    </trkpt>
    <trkpt lat="43.156789" lon="-2.656291">
        <ele>221.3</ele>
        <time>2023-02-22T11:13:44.798Z</time>
    </trkpt>
    <trkpt lat="43.156688" lon="-2.656284">
        <ele>223.1</ele>
        <time>2023-02-22T11:14:06.148Z</time>
    </trkpt>
    <trkpt lat="43.156674" lon="-2.656195">
        <ele>224.5</ele>
        <time>2023-02-22T11:14:18.492Z</time>
    </trkpt>
    <trkpt lat="43.156933" lon="-2.655859">
        <ele>224.8</ele>
        <time>2023-02-22T11:15:21.080Z</time>
    </trkpt>
    <trkpt lat="43.157056" lon="-2.655762">
        <ele>222.8</ele>
        <time>2023-02-22T11:15:47.491Z</time>
    </trkpt>
    <trkpt lat="43.157213" lon="-2.655603">
        <ele>219.7</ele>
        <time>2023-02-22T11:16:27.179Z</time>
    </trkpt>
    <trkpt lat="43.157297" lon="-2.655381">
        <ele>220.1</ele>
        <time>2023-02-22T11:17:06.814Z</time>
    </trkpt>
    <trkpt lat="43.157304" lon="-2.655203">
        <ele>223.0</ele>
        <time>2023-02-22T11:17:34.477Z</time>
    </trkpt>
    <trkpt lat="43.157227" lon="-2.655034">
        <ele>228.8</ele>
        <time>2023-02-22T11:18:04.984Z</time>
    </trkpt>
    <trkpt lat="43.157111" lon="-2.65474">
        <ele>239.2</ele>
        <time>2023-02-22T11:19:03.243Z</time>
    </trkpt>
    <trkpt lat="43.15706" lon="-2.654544">
        <ele>243.7</ele>
        <time>2023-02-22T11:19:36.851Z</time>
    </trkpt>
    <trkpt lat="43.157112" lon="-2.654393">
        <ele>244.7</ele>
        <time>2023-02-22T11:20:03.657Z</time>
    </trkpt>
    <trkpt lat="43.157365" lon="-2.65451">
        <ele>238.7</ele>
        <time>2023-02-22T11:20:54.841Z</time>
    </trkpt>
    <trkpt lat="43.157611" lon="-2.654582">
        <ele>234.3</ele>
        <time>2023-02-22T11:21:38.299Z</time>
    </trkpt>
    <trkpt lat="43.157786" lon="-2.654574">
        <ele>231.9</ele>
        <time>2023-02-22T11:22:08.908Z</time>
    </trkpt>
    <trkpt lat="43.157678" lon="-2.654534">
        <ele>235.0</ele>
        <time>2023-02-22T11:22:26.904Z</time>
    </trkpt>
    <trkpt lat="43.157524" lon="-2.654371">
        <ele>240.4</ele>
        <time>2023-02-22T11:22:56.214Z</time>
    </trkpt>
    <trkpt lat="43.157417" lon="-2.654276">
        <ele>243.5</ele>
        <time>2023-02-22T11:23:14.434Z</time>
    </trkpt>
    <trkpt lat="43.157265" lon="-2.654107">
        <ele>248.2</ele>
        <time>2023-02-22T11:23:43.338Z</time>
    </trkpt>
    <trkpt lat="43.157114" lon="-2.653936">
        <ele>253.2</ele>
        <time>2023-02-22T11:24:13.054Z</time>
    </trkpt>
    <trkpt lat="43.156959" lon="-2.653802">
        <ele>256.9</ele>
        <time>2023-02-22T11:24:41.248Z</time>
    </trkpt>
    <trkpt lat="43.156874" lon="-2.653743">
        <ele>259.0</ele>
        <time>2023-02-22T11:24:55.098Z</time>
    </trkpt>
    <trkpt lat="43.156767" lon="-2.653833">
        <ele>258.7</ele>
        <time>2023-02-22T11:25:12.530Z</time>
    </trkpt>
    <trkpt lat="43.156688" lon="-2.653992">
        <ele>258.4</ele>
        <time>2023-02-22T11:25:31.304Z</time>
    </trkpt>
    <trkpt lat="43.156618" lon="-2.654279">
        <ele>257.6</ele>
        <time>2023-02-22T11:26:00.910Z</time>
    </trkpt>
    <trkpt lat="43.156474" lon="-2.654459">
        <ele>260.4</ele>
        <time>2023-02-22T11:26:27.337Z</time>
    </trkpt>
    <trkpt lat="43.156304" lon="-2.654575">
        <ele>266.2</ele>
        <time>2023-02-22T11:26:54.959Z</time>
    </trkpt>
    <trkpt lat="43.156232" lon="-2.654866">
        <ele>265.0</ele>
        <time>2023-02-22T11:27:27.231Z</time>
    </trkpt>
    <trkpt lat="43.15611" lon="-2.655091">
        <ele>265.6</ele>
        <time>2023-02-22T11:28:01.094Z</time>
    </trkpt>
    <trkpt lat="43.155983" lon="-2.655201">
        <ele>267.7</ele>
        <time>2023-02-22T11:28:29.606Z</time>
    </trkpt>
    <trkpt lat="43.155818" lon="-2.655351">
        <ele>268.9</ele>
        <time>2023-02-22T11:29:05.627Z</time>
    </trkpt>
    <trkpt lat="43.155708" lon="-2.655381">
        <ele>270.5</ele>
        <time>2023-02-22T11:29:24.238Z</time>
    </trkpt>
    <trkpt lat="43.155592" lon="-2.655367">
        <ele>272.5</ele>
        <time>2023-02-22T11:29:43.551Z</time>
    </trkpt>
    <trkpt lat="43.155433" lon="-2.655447">
        <ele>273.9</ele>
        <time>2023-02-22T11:30:11.246Z</time>
    </trkpt>
    <trkpt lat="43.155248" lon="-2.655528">
        <ele>275.8</ele>
        <time>2023-02-22T11:30:42.489Z</time>
    </trkpt>
    <trkpt lat="43.155153" lon="-2.655521">
        <ele>278.3</ele>
        <time>2023-02-22T11:30:56.821Z</time>
    </trkpt>
    <trkpt lat="43.155261" lon="-2.655315">
        <ele>279.9</ele>
        <time>2023-02-22T11:31:23.272Z</time>
    </trkpt>
    <trkpt lat="43.155421" lon="-2.655035">
        <ele>282.3</ele>
        <time>2023-02-22T11:31:58.810Z</time>
    </trkpt>
    <trkpt lat="43.155538" lon="-2.654878">
        <ele>283.8</ele>
        <time>2023-02-22T11:32:20.711Z</time>
    </trkpt>
    <trkpt lat="43.155668" lon="-2.654648">
        <ele>286.8</ele>
        <time>2023-02-22T11:32:48.282Z</time>
    </trkpt>
    <trkpt lat="43.155759" lon="-2.654448">
        <ele>287.9</ele>
        <time>2023-02-22T11:33:09.904Z</time>
    </trkpt>
    <trkpt lat="43.155854" lon="-2.654137">
        <ele>286.5</ele>
        <time>2023-02-22T11:33:40.205Z</time>
    </trkpt>
    <trkpt lat="43.155859" lon="-2.654127">
        <ele>286.3</ele>
        <time>2023-02-22T11:33:41.276Z</time>
    </trkpt>
    <trkpt lat="43.155952" lon="-2.653811">
        <ele>283.6</ele>
        <time>2023-02-22T11:34:15.456Z</time>
    </trkpt>
    <trkpt lat="43.156032" lon="-2.653671">
        <ele>281.3</ele>
        <time>2023-02-22T11:34:30.494Z</time>
    </trkpt>
    <trkpt lat="43.156197" lon="-2.653493">
        <ele>277.9</ele>
        <time>2023-02-22T11:34:49.277Z</time>
    </trkpt>
    <trkpt lat="43.156297" lon="-2.653201">
        <ele>278.9</ele>
        <time>2023-02-22T11:35:08.465Z</time>
    </trkpt>
    <trkpt lat="43.156407" lon="-2.65292">
        <ele>277.4</ele>
        <time>2023-02-22T11:35:25.847Z</time>
    </trkpt>
    <trkpt lat="43.156555" lon="-2.65283">
        <ele>276.3</ele>
        <time>2023-02-22T11:35:36.452Z</time>
    </trkpt>
    <trkpt lat="43.156826" lon="-2.652924">
        <ele>273.2</ele>
        <time>2023-02-22T11:35:55.279Z</time>
    </trkpt>
    <trkpt lat="43.156942" lon="-2.652927">
        <ele>271.7</ele>
        <time>2023-02-22T11:36:03.581Z</time>
    </trkpt>
    <trkpt lat="43.1571294" lon="-2.6530013">
        <ele>270.0</ele>
        <time>2023-02-22T11:36:17.866Z</time>
    </trkpt>
    <trkpt lat="43.1573162" lon="-2.6529727">
        <ele>270.6</ele>
        <time>2023-02-22T11:36:31.138Z</time>
    </trkpt>
    <trkpt lat="43.157443" lon="-2.652796">
        <ele>272.5</ele>
        <time>2023-02-22T11:36:44.653Z</time>
    </trkpt>
    <trkpt lat="43.157577" lon="-2.652477">
        <ele>272.3</ele>
        <time>2023-02-22T11:37:05.409Z</time>
    </trkpt>
    <trkpt lat="43.15768" lon="-2.652085">
        <ele>272.6</ele>
        <time>2023-02-22T11:37:29.620Z</time>
    </trkpt>
    <trkpt lat="43.157736" lon="-2.651682">
        <ele>273.6</ele>
        <time>2023-02-22T11:37:52.794Z</time>
    </trkpt>
    <trkpt lat="43.157823" lon="-2.651422">
        <ele>272.8</ele>
        <time>2023-02-22T11:38:09.377Z</time>
    </trkpt>
    <trkpt lat="43.157941" lon="-2.651118">
        <ele>269.3</ele>
        <time>2023-02-22T11:38:29.947Z</time>
    </trkpt>
    <trkpt lat="43.157951" lon="-2.650787">
        <ele>265.7</ele>
        <time>2023-02-22T11:38:50.159Z</time>
    </trkpt>
    <trkpt lat="43.157887" lon="-2.650674">
        <ele>266.5</ele>
        <time>2023-02-22T11:38:59.128Z</time>
    </trkpt>
    <trkpt lat="43.157817" lon="-2.650472">
        <ele>266.7</ele>
        <time>2023-02-22T11:39:13.520Z</time>
    </trkpt>
    <trkpt lat="43.157695" lon="-2.650236">
        <ele>269.2</ele>
        <time>2023-02-22T11:39:31.396Z</time>
    </trkpt>
    <trkpt lat="43.157635" lon="-2.650019">
        <ele>269.7</ele>
        <time>2023-02-22T11:39:45.883Z</time>
    </trkpt>
    <trkpt lat="43.15761" lon="-2.64981">
        <ele>269.3</ele>
        <time>2023-02-22T11:39:58.875Z</time>
    </trkpt>
    <trkpt lat="43.157602" lon="-2.649606">
        <ele>268.8</ele>
        <time>2023-02-22T11:40:11.890Z</time>
    </trkpt>
    <trkpt lat="43.1576" lon="-2.649512">
        <ele>268.7</ele>
        <time>2023-02-22T11:40:17.390Z</time>
    </trkpt>
    <trkpt lat="43.157615" lon="-2.649398">
        <ele>268.4</ele>
        <time>2023-02-22T11:40:24.459Z</time>
    </trkpt>
    <trkpt lat="43.157608" lon="-2.649331">
        <ele>268.4</ele>
        <time>2023-02-22T11:40:28.746Z</time>
    </trkpt>
    <trkpt lat="43.157656" lon="-2.649239">
        <ele>267.8</ele>
        <time>2023-02-22T11:40:36.151Z</time>
    </trkpt>
    <trkpt lat="43.157797" lon="-2.649161">
        <ele>265.7</ele>
        <time>2023-02-22T11:40:49.125Z</time>
    </trkpt>
    <trkpt lat="43.157929" lon="-2.649072">
        <ele>263.6</ele>
        <time>2023-02-22T11:41:02.124Z</time>
    </trkpt>
    <trkpt lat="43.158041" lon="-2.648916">
        <ele>261.4</ele>
        <time>2023-02-22T11:41:14.076Z</time>
    </trkpt>
    <trkpt lat="43.158167" lon="-2.648623">
        <ele>260.7</ele>
        <time>2023-02-22T11:41:29.722Z</time>
    </trkpt>
    <trkpt lat="43.158346" lon="-2.648264">
        <ele>257.0</ele>
        <time>2023-02-22T11:41:47.412Z</time>
    </trkpt>
    <trkpt lat="43.158487" lon="-2.648013">
        <ele>253.4</ele>
        <time>2023-02-22T11:41:59.385Z</time>
    </trkpt>
    <trkpt lat="43.158565" lon="-2.647871">
        <ele>252.0</ele>
        <time>2023-02-22T11:42:05.693Z</time>
    </trkpt>
    <trkpt lat="43.158624" lon="-2.647717">
        <ele>251.2</ele>
        <time>2023-02-22T11:42:12.433Z</time>
    </trkpt>
    <trkpt lat="43.158631" lon="-2.647707">
        <ele>251.1</ele>
        <time>2023-02-22T11:42:13.015Z</time>
    </trkpt>
    <trkpt lat="43.15873" lon="-2.647548">
        <ele>249.5</ele>
        <time>2023-02-22T11:42:21.362Z</time>
    </trkpt>
    <trkpt lat="43.15884" lon="-2.647462">
        <ele>248.0</ele>
        <time>2023-02-22T11:42:28.595Z</time>
    </trkpt>
    <trkpt lat="43.158979" lon="-2.64735">
        <ele>247.4</ele>
        <time>2023-02-22T11:42:37.641Z</time>
    </trkpt>
    <trkpt lat="43.159236" lon="-2.647127">
        <ele>246.3</ele>
        <time>2023-02-22T11:42:55.156Z</time>
    </trkpt>
    <trkpt lat="43.159432" lon="-2.646982">
        <ele>246.3</ele>
        <time>2023-02-22T11:43:07.534Z</time>
    </trkpt>
    <trkpt lat="43.159541" lon="-2.646804">
        <ele>245.0</ele>
        <time>2023-02-22T11:43:17.195Z</time>
    </trkpt>
    <trkpt lat="43.159634" lon="-2.646631">
        <ele>243.6</ele>
        <time>2023-02-22T11:43:26.393Z</time>
    </trkpt>
    <trkpt lat="43.159703" lon="-2.646422">
        <ele>242.7</ele>
        <time>2023-02-22T11:43:36.546Z</time>
    </trkpt>
    <trkpt lat="43.159721" lon="-2.646113">
        <ele>241.6</ele>
        <time>2023-02-22T11:43:51.093Z</time>
    </trkpt>
    <trkpt lat="43.159727" lon="-2.645971">
        <ele>241.3</ele>
        <time>2023-02-22T11:43:57.662Z</time>
    </trkpt>
    <trkpt lat="43.159769" lon="-2.645822">
        <ele>241.1</ele>
        <time>2023-02-22T11:44:05.236Z</time>
    </trkpt>
    <trkpt lat="43.159791" lon="-2.645614">
        <ele>241.1</ele>
        <time>2023-02-22T11:44:15.396Z</time>
    </trkpt>
    <trkpt lat="43.159872" lon="-2.645369">
        <ele>241.0</ele>
        <time>2023-02-22T11:44:28.744Z</time>
    </trkpt>
    <trkpt lat="43.159916" lon="-2.64516">
        <ele>239.8</ele>
        <time>2023-02-22T11:44:39.882Z</time>
    </trkpt>
    <trkpt lat="43.159907" lon="-2.644858">
        <ele>239.2</ele>
        <time>2023-02-22T11:44:55.991Z</time>
    </trkpt>
    <trkpt lat="43.159877" lon="-2.644565">
        <ele>239.0</ele>
        <time>2023-02-22T11:45:12.287Z</time>
    </trkpt>
    <trkpt lat="43.159857" lon="-2.644301">
        <ele>238.9</ele>
        <time>2023-02-22T11:45:27.338Z</time>
    </trkpt>
    <trkpt lat="43.159854" lon="-2.644295">
        <ele>238.9</ele>
        <time>2023-02-22T11:45:27.769Z</time>
    </trkpt>
    <trkpt lat="43.159859" lon="-2.643991">
        <ele>238.2</ele>
        <time>2023-02-22T11:45:46.368Z</time>
    </trkpt>
    <trkpt lat="43.160002" lon="-2.643875">
        <ele>238.7</ele>
        <time>2023-02-22T11:46:00.455Z</time>
    </trkpt>
    <trkpt lat="43.160154" lon="-2.643818">
        <ele>238.8</ele>
        <time>2023-02-22T11:46:13.849Z</time>
    </trkpt>
    <trkpt lat="43.160378" lon="-2.643733">
        <ele>238.6</ele>
        <time>2023-02-22T11:46:33.380Z</time>
    </trkpt>
    <trkpt lat="43.160593" lon="-2.643617">
        <ele>237.4</ele>
        <time>2023-02-22T11:46:52.362Z</time>
    </trkpt>
    <trkpt lat="43.16074" lon="-2.643508">
        <ele>236.5</ele>
        <time>2023-02-22T11:47:03.903Z</time>
    </trkpt>
    <trkpt lat="43.16093" lon="-2.643366">
        <ele>234.1</ele>
        <time>2023-02-22T11:47:19.260Z</time>
    </trkpt>
    <trkpt lat="43.161182" lon="-2.643258">
        <ele>230.6</ele>
        <time>2023-02-22T11:47:36.319Z</time>
    </trkpt>
    <trkpt lat="43.161316" lon="-2.643292">
        <ele>228.6</ele>
        <time>2023-02-22T11:47:44.912Z</time>
    </trkpt>
    <trkpt lat="43.161506" lon="-2.643318">
        <ele>226.0</ele>
        <time>2023-02-22T11:47:56.465Z</time>
    </trkpt>
    <trkpt lat="43.161629" lon="-2.643327">
        <ele>224.7</ele>
        <time>2023-02-22T11:48:04.206Z</time>
    </trkpt>
    <trkpt lat="43.161843" lon="-2.643308">
        <ele>223.5</ele>
        <time>2023-02-22T11:48:16.745Z</time>
    </trkpt>
    <trkpt lat="43.162063" lon="-2.643284">
        <ele>223.4</ele>
        <time>2023-02-22T11:48:30.616Z</time>
    </trkpt>
    <trkpt lat="43.162229" lon="-2.643175">
        <ele>223.9</ele>
        <time>2023-02-22T11:48:42.277Z</time>
    </trkpt>
    <trkpt lat="43.162431" lon="-2.643084">
        <ele>224.0</ele>
        <time>2023-02-22T11:48:56.633Z</time>
    </trkpt>
    <trkpt lat="43.162597" lon="-2.643001">
        <ele>224.5</ele>
        <time>2023-02-22T11:49:09.307Z</time>
    </trkpt>
    <trkpt lat="43.162726" lon="-2.642884">
        <ele>225.1</ele>
        <time>2023-02-22T11:49:21.033Z</time>
    </trkpt>
    <trkpt lat="43.162877" lon="-2.642768">
        <ele>225.5</ele>
        <time>2023-02-22T11:49:35.004Z</time>
    </trkpt>
    <trkpt lat="43.163061" lon="-2.6425">
        <ele>225.5</ele>
        <time>2023-02-22T11:49:58.066Z</time>
    </trkpt>
    <trkpt lat="43.163256" lon="-2.642338">
        <ele>225.2</ele>
        <time>2023-02-22T11:50:18.650Z</time>
    </trkpt>
    <trkpt lat="43.163419" lon="-2.641861">
        <ele>229.3</ele>
        <time>2023-02-22T11:50:54.407Z</time>
    </trkpt>
    <trkpt lat="43.163464" lon="-2.641454">
        <ele>230.0</ele>
        <time>2023-02-22T11:51:23.061Z</time>
    </trkpt>
    <trkpt lat="43.1634991" lon="-2.6413581">
        <ele>229.0</ele>
        <time>2023-02-22T11:51:30.825Z</time>
    </trkpt>
    <trkpt lat="43.1635926" lon="-2.6413749">
        <ele>227.7</ele>
        <time>2023-02-22T11:51:40.330Z</time>
    </trkpt>
    <trkpt lat="43.163708" lon="-2.6415789">
        <ele>227.8</ele>
        <time>2023-02-22T11:51:57.460Z</time>
    </trkpt>
    <trkpt lat="43.1638044" lon="-2.641775">
        <ele>228.4</ele>
        <time>2023-02-22T11:52:13.584Z</time>
    </trkpt>
    <trkpt lat="43.1639935" lon="-2.6420984">
        <ele>223.7</ele>
        <time>2023-02-22T11:52:36.701Z</time>
    </trkpt>
    <trkpt lat="43.1642333" lon="-2.642558">
        <ele>217.1</ele>
        <time>2023-02-22T11:53:07.986Z</time>
    </trkpt>
    <trkpt lat="43.164679" lon="-2.642726">
        <ele>207.0</ele>
        <time>2023-02-22T11:53:40.874Z</time>
    </trkpt>
    <trkpt lat="43.1647943" lon="-2.6426453">
        <ele>204.3</ele>
        <time>2023-02-22T11:53:50.606Z</time>
    </trkpt>
    <trkpt lat="43.1648336" lon="-2.6425122">
        <ele>203.1</ele>
        <time>2023-02-22T11:53:58.879Z</time>
    </trkpt>
    <trkpt lat="43.1648807" lon="-2.642498">
        <ele>201.4</ele>
        <time>2023-02-22T11:54:02.890Z</time>
    </trkpt>
    <trkpt lat="43.1649355" lon="-2.6425696">
        <ele>199.6</ele>
        <time>2023-02-22T11:54:09.432Z</time>
    </trkpt>
    <trkpt lat="43.165062" lon="-2.642812">
        <ele>195.8</ele>
        <time>2023-02-22T11:54:28.862Z</time>
    </trkpt>
    <trkpt lat="43.165151" lon="-2.642934">
        <ele>191.8</ele>
        <time>2023-02-22T11:54:38.525Z</time>
    </trkpt>
    <trkpt lat="43.165128" lon="-2.643108">
        <ele>192.2</ele>
        <time>2023-02-22T11:54:48.905Z</time>
    </trkpt>
    <trkpt lat="43.165104" lon="-2.64325">
        <ele>193.7</ele>
        <time>2023-02-22T11:54:57.827Z</time>
    </trkpt>
    <trkpt lat="43.165029" lon="-2.643337">
        <ele>195.5</ele>
        <time>2023-02-22T11:55:06.363Z</time>
    </trkpt>
    <trkpt lat="43.165058" lon="-2.643456">
        <ele>194.2</ele>
        <time>2023-02-22T11:55:14.580Z</time>
    </trkpt>
    <trkpt lat="43.164919" lon="-2.643574">
        <ele>196.3</ele>
        <time>2023-02-22T11:55:29.571Z</time>
    </trkpt>
    <trkpt lat="43.164757" lon="-2.643628">
        <ele>198.7</ele>
        <time>2023-02-22T11:55:45.263Z</time>
    </trkpt>
    <trkpt lat="43.164549" lon="-2.643691">
        <ele>199.8</ele>
        <time>2023-02-22T11:56:05.542Z</time>
    </trkpt>
    <trkpt lat="43.164411" lon="-2.643809">
        <ele>199.4</ele>
        <time>2023-02-22T11:56:20.991Z</time>
    </trkpt>
    <trkpt lat="43.164278" lon="-2.643958">
        <ele>198.1</ele>
        <time>2023-02-22T11:56:35.468Z</time>
    </trkpt>
    <trkpt lat="43.164266" lon="-2.643966">
        <ele>198.0</ele>
        <time>2023-02-22T11:56:36.634Z</time>
    </trkpt>
    <trkpt lat="43.164104" lon="-2.644092">
        <ele>196.3</ele>
        <time>2023-02-22T11:56:53.007Z</time>
    </trkpt>
    <trkpt lat="43.163925" lon="-2.644226">
        <ele>194.6</ele>
        <time>2023-02-22T11:57:08.072Z</time>
    </trkpt>
    <trkpt lat="43.163757" lon="-2.64447">
        <ele>192.4</ele>
        <time>2023-02-22T11:57:25.520Z</time>
    </trkpt>
    <trkpt lat="43.163607" lon="-2.644612">
        <ele>192.6</ele>
        <time>2023-02-22T11:57:38.727Z</time>
    </trkpt>
    <trkpt lat="43.163479" lon="-2.644777">
        <ele>192.7</ele>
        <time>2023-02-22T11:57:50.789Z</time>
    </trkpt>
    <trkpt lat="43.163433" lon="-2.644888">
        <ele>192.6</ele>
        <time>2023-02-22T11:57:57.568Z</time>
    </trkpt>
    <trkpt lat="43.16344" lon="-2.645022">
        <ele>191.4</ele>
        <time>2023-02-22T11:58:03.819Z</time>
    </trkpt>
    <trkpt lat="43.163585" lon="-2.645172">
        <ele>187.8</ele>
        <time>2023-02-22T11:58:15.212Z</time>
    </trkpt>
    <trkpt lat="43.163799" lon="-2.645367">
        <ele>183.7</ele>
        <time>2023-02-22T11:58:31.449Z</time>
    </trkpt>
    <trkpt lat="43.164054" lon="-2.645495">
        <ele>180.6</ele>
        <time>2023-02-22T11:58:47.684Z</time>
    </trkpt>
    <trkpt lat="43.164194" lon="-2.645564">
        <ele>178.8</ele>
        <time>2023-02-22T11:58:57.523Z</time>
    </trkpt>
    <trkpt lat="43.164383" lon="-2.645655">
        <ele>175.9</ele>
        <time>2023-02-22T11:59:09.479Z</time>
    </trkpt>
    <trkpt lat="43.164544" lon="-2.645787">
        <ele>172.0</ele>
        <time>2023-02-22T11:59:20.086Z</time>
    </trkpt>
    <trkpt lat="43.164756" lon="-2.645881">
        <ele>166.4</ele>
        <time>2023-02-22T11:59:31.485Z</time>
    </trkpt>
    <trkpt lat="43.165015" lon="-2.64589">
        <ele>162.0</ele>
        <time>2023-02-22T11:59:44.164Z</time>
    </trkpt>
    <trkpt lat="43.165248" lon="-2.645872">
        <ele>158.6</ele>
        <time>2023-02-22T11:59:54.851Z</time>
    </trkpt>
    <trkpt lat="43.165442" lon="-2.645704">
        <ele>158.1</ele>
        <time>2023-02-22T12:00:05.557Z</time>
    </trkpt>
    <trkpt lat="43.165667" lon="-2.645727">
        <ele>154.1</ele>
        <time>2023-02-22T12:00:15.507Z</time>
    </trkpt>
    <trkpt lat="43.16587" lon="-2.645649">
        <ele>152.5</ele>
        <time>2023-02-22T12:00:24.659Z</time>
    </trkpt>
    <trkpt lat="43.166063" lon="-2.645595">
        <ele>150.5</ele>
        <time>2023-02-22T12:00:33.466Z</time>
    </trkpt>
    <trkpt lat="43.166304" lon="-2.645522">
        <ele>147.1</ele>
        <time>2023-02-22T12:00:44.000Z</time>
    </trkpt>
    <trkpt lat="43.166492" lon="-2.645478">
        <ele>142.3</ele>
        <time>2023-02-22T12:00:53.162Z</time>
    </trkpt>
    <trkpt lat="43.16671" lon="-2.645448">
        <ele>133.8</ele>
        <time>2023-02-22T12:01:04.395Z</time>
    </trkpt>
    <trkpt lat="43.166976" lon="-2.645444">
        <ele>127.3</ele>
        <time>2023-02-22T12:01:17.899Z</time>
    </trkpt>
    <trkpt lat="43.16721" lon="-2.64542">
        <ele>124.7</ele>
        <time>2023-02-22T12:01:28.948Z</time>
    </trkpt>
    <trkpt lat="43.1673263923186" lon="-2.645425598646787">
        <ele>124.1</ele>
        <time>2023-02-22T12:01:34.949Z</time>
    </trkpt>
    <trkpt lat="43.16736647758812" lon="-2.645310012982756">
        <ele>123.0</ele>
        <time>2023-02-22T12:01:39.814Z</time>
    </trkpt>
    <trkpt lat="43.16739478217208" lon="-2.645154656656643">
        <ele>121.6</ele>
        <time>2023-02-22T12:01:45.500Z</time>
    </trkpt>
    <trkpt lat="43.16741939458856" lon="-2.645019564433255">
        <ele>120.3</ele>
        <time>2023-02-22T12:01:50.719Z</time>
    </trkpt>
    <trkpt lat="43.16743785641248" lon="-2.644936819552878">
        <ele>119.8</ele>
        <time>2023-02-22T12:01:54.076Z</time>
    </trkpt>
    <trkpt lat="43.16746985280066" lon="-2.644766265489595">
        <ele>118.7</ele>
        <time>2023-02-22T12:02:00.917Z</time>
    </trkpt>
    <trkpt lat="43.1674846165079" lon="-2.644661570275867">
        <ele>117.9</ele>
        <time>2023-02-22T12:02:05.333Z</time>
    </trkpt>
    <trkpt lat="43.16753261983128" lon="-2.644470748968262">
        <ele>116.2</ele>
        <time>2023-02-22T12:02:13.923Z</time>
    </trkpt>
    <trkpt lat="43.16754984110999" lon="-2.644330593060772">
        <ele>115.4</ele>
        <time>2023-02-22T12:02:20.407Z</time>
    </trkpt>
    <trkpt lat="43.16757937232546" lon="-2.644153285054695">
        <ele>114.8</ele>
        <time>2023-02-22T12:02:28.690Z</time>
    </trkpt>
    <trkpt lat="43.16758551698933" lon="-2.644065477668592">
        <ele>114.6</ele>
        <time>2023-02-22T12:02:32.746Z</time>
    </trkpt>
    <trkpt lat="43.16759657581009" lon="-2.643898305866761">
        <ele>115.0</ele>
        <time>2023-02-22T12:02:40.815Z</time>
    </trkpt>
    <trkpt lat="43.16761379353247" lon="-2.643739574898881">
        <ele>115.5</ele>
        <time>2023-02-22T12:02:48.862Z</time>
    </trkpt>
    <trkpt lat="43.16763962655225" lon="-2.643545380835172">
        <ele>116.8</ele>
        <time>2023-02-22T12:02:59.105Z</time>
    </trkpt>
    <trkpt lat="43.16765069546627" lon="-2.643447439740237">
        <ele>117.4</ele>
        <time>2023-02-22T12:03:04.407Z</time>
    </trkpt>
    <trkpt lat="43.16765930405051" lon="-2.643367894164621">
        <ele>117.5</ele>
        <time>2023-02-22T12:03:08.938Z</time>
    </trkpt>
    <trkpt lat="43.16761617705148" lon="-2.6432271094815">
        <ele>117.5</ele>
        <time>2023-02-22T12:03:17.872Z</time>
    </trkpt>
    <trkpt lat="43.16755912708925" lon="-2.643087855798295">
        <ele>117.8</ele>
        <time>2023-02-22T12:03:27.543Z</time>
    </trkpt>
    <trkpt lat="43.16750558696437" lon="-2.642926453383931">
        <ele>117.5</ele>
        <time>2023-02-22T12:03:38.215Z</time>
    </trkpt>
    <trkpt lat="43.16747345064432" lon="-2.642754562964104">
        <ele>117.0</ele>
        <time>2023-02-22T12:03:49.047Z</time>
    </trkpt>
    <trkpt lat="43.16745048105737" lon="-2.642540742847811">
        <ele>116.3</ele>
        <time>2023-02-22T12:04:02.504Z</time>
    </trkpt>
    <trkpt lat="43.16742291640315" lon="-2.642280804262215">
        <ele>115.6</ele>
        <time>2023-02-22T12:04:19.013Z</time>
    </trkpt>
    <trkpt lat="43.16741523495746" lon="-2.64206278602579">
        <ele>114.9</ele>
        <time>2023-02-22T12:04:32.809Z</time>
    </trkpt>
    <trkpt lat="43.16741826131996" lon="-2.641876209137561">
        <ele>114.2</ele>
        <time>2023-02-22T12:04:44.758Z</time>
    </trkpt>
    <trkpt lat="43.1674625862271" lon="-2.641783955021425">
        <ele>113.9</ele>
        <time>2023-02-22T12:04:51.314Z</time>
    </trkpt>
    <trkpt lat="43.16756961144056" lon="-2.641760860758933">
        <ele>113.7</ele>
        <time>2023-02-22T12:05:00.285Z</time>
    </trkpt>
    <trkpt lat="43.16769039687232" lon="-2.641733569166137">
        <ele>113.3</ele>
        <time>2023-02-22T12:05:10.658Z</time>
    </trkpt>
    <trkpt lat="43.16779895257832" lon="-2.641718859386023">
        <ele>112.7</ele>
        <time>2023-02-22T12:05:19.758Z</time>
    </trkpt>
    <trkpt lat="43.1679103983502" lon="-2.641681849918922">
        <ele>112.1</ele>
        <time>2023-02-22T12:05:29.691Z</time>
    </trkpt>
    <trkpt lat="43.16803883110016" lon="-2.641669230087213">
        <ele>111.0</ele>
        <time>2023-02-22T12:05:40.920Z</time>
    </trkpt>
    <trkpt lat="43.16817472867358" lon="-2.641634780303047">
        <ele>110.5</ele>
        <time>2023-02-22T12:05:53.075Z</time>
    </trkpt>
    <trkpt lat="43.16829704392224" lon="-2.641613776955086">
        <ele>110.6</ele>
        <time>2023-02-22T12:06:03.370Z</time>
    </trkpt>
    <trkpt lat="43.16841783132122" lon="-2.641599063072953">
        <ele>110.8</ele>
        <time>2023-02-22T12:06:13.671Z</time>
    </trkpt>
    <trkpt lat="43.16852332894723" lon="-2.64158435398036">
        <ele>111.1</ele>
        <time>2023-02-22T12:06:22.754Z</time>
    </trkpt>
    <trkpt lat="43.16862424112118" lon="-2.641578031764609">
        <ele>111.2</ele>
        <time>2023-02-22T12:06:31.335Z</time>
    </trkpt>
    </trkseg>
</trk>
</gpx>